sensor_id;sensor_type;location;lat;lon;timestamp;P1;durP1;ratioP1;P2;durP2;ratioP2
27925;SDS011;15267;47.838;12.128;2022-08-19T00:02:05;6.75;;;6.15;;
27925;SDS011;15267;47.838;12.128;2022-08-19T00:04:33;8.70;;;5.90;;
27925;SDS011;15267;47.838;12.128;2022-08-19T00:07:01;6.03;;;5.43;;
27925;SDS011;15267;47.838;12.128;2022-08-19T00:09:27;5.80;;;5.30;;
27925;SDS011;15267;47.838;12.128;2022-08-19T00:11:53;6.30;;;5.78;;
27925;SDS011;15267;47.838;12.128;2022-08-19T00:14:20;5.45;;;5.05;;
27925;SDS011;15267;47.838;12.128;2022-08-19T00:16:47;6.00;;;5.25;;
27925;SDS011;15267;47.838;12.128;2022-08-19T00:19:14;5.90;;;5.32;;
27925;SDS011;15267;47.838;12.128;2022-08-19T00:21:40;6.53;;;5.93;;
27925;SDS011;15267;47.838;12.128;2022-08-19T00:24:07;6.88;;;5.63;;
27925;SDS011;15267;47.838;12.128;2022-08-19T00:26:33;6.38;;;5.80;;
27925;SDS011;15267;47.838;12.128;2022-08-19T00:28:59;6.47;;;5.57;;
27925;SDS011;15267;47.838;12.128;2022-08-19T00:31:26;6.30;;;5.15;;
27925;SDS011;15267;47.838;12.128;2022-08-19T00:33:52;6.03;;;5.30;;
27925;SDS011;15267;47.838;12.128;2022-08-19T00:36:19;6.05;;;5.25;;
27925;SDS011;15267;47.838;12.128;2022-08-19T00:38:45;5.95;;;5.32;;
27925;SDS011;15267;47.838;12.128;2022-08-19T00:41:13;5.90;;;5.00;;
27925;SDS011;15267;47.838;12.128;2022-08-19T00:43:39;5.18;;;4.75;;
27925;SDS011;15267;47.838;12.128;2022-08-19T00:46:06;6.28;;;5.30;;
27925;SDS011;15267;47.838;12.128;2022-08-19T00:48:32;5.13;;;4.60;;
27925;SDS011;15267;47.838;12.128;2022-08-19T00:50:59;7.28;;;5.20;;
27925;SDS011;15267;47.838;12.128;2022-08-19T00:53:26;5.65;;;4.88;;
27925;SDS011;15267;47.838;12.128;2022-08-19T00:55:53;5.13;;;4.63;;
27925;SDS011;15267;47.838;12.128;2022-08-19T00:58:21;6.00;;;4.82;;
27925;SDS011;15267;47.838;12.128;2022-08-19T01:00:49;5.18;;;4.50;;
27925;SDS011;15267;47.838;12.128;2022-08-19T01:03:17;5.22;;;4.72;;
27925;SDS011;15267;47.838;12.128;2022-08-19T01:05:44;5.40;;;4.90;;
27925;SDS011;15267;47.838;12.128;2022-08-19T01:08:11;6.72;;;5.00;;
27925;SDS011;15267;47.838;12.128;2022-08-19T01:10:40;6.38;;;4.82;;
27925;SDS011;15267;47.838;12.128;2022-08-19T01:13:07;5.40;;;4.90;;
27925;SDS011;15267;47.838;12.128;2022-08-19T01:15:35;5.60;;;5.03;;
27925;SDS011;15267;47.838;12.128;2022-08-19T01:18:05;6.03;;;5.15;;
27925;SDS011;15267;47.838;12.128;2022-08-19T01:20:31;5.40;;;4.85;;
27925;SDS011;15267;47.838;12.128;2022-08-19T01:22:58;5.50;;;4.68;;
27925;SDS011;15267;47.838;12.128;2022-08-19T01:25:26;5.07;;;4.57;;
27925;SDS011;15267;47.838;12.128;2022-08-19T01:27:53;5.45;;;4.93;;
27925;SDS011;15267;47.838;12.128;2022-08-19T01:30:22;4.97;;;4.55;;
27925;SDS011;15267;47.838;12.128;2022-08-19T01:32:50;4.57;;;4.18;;
27925;SDS011;15267;47.838;12.128;2022-08-19T01:35:16;6.13;;;4.25;;
27925;SDS011;15267;47.838;12.128;2022-08-19T01:38:02;4.90;;;4.50;;
27925;SDS011;15267;47.838;12.128;2022-08-19T01:40:32;5.32;;;4.88;;
27925;SDS011;15267;47.838;12.128;2022-08-19T01:42:58;4.88;;;4.38;;
27925;SDS011;15267;47.838;12.128;2022-08-19T01:45:26;3.97;;;3.65;;
27925;SDS011;15267;47.838;12.128;2022-08-19T01:47:53;3.88;;;3.38;;
27925;SDS011;15267;47.838;12.128;2022-08-19T01:50:19;3.40;;;3.10;;
27925;SDS011;15267;47.838;12.128;2022-08-19T01:52:45;4.72;;;2.95;;
27925;SDS011;15267;47.838;12.128;2022-08-19T01:55:13;2.50;;;2.30;;
27925;SDS011;15267;47.838;12.128;2022-08-19T01:57:39;2.35;;;2.15;;
27925;SDS011;15267;47.838;12.128;2022-08-19T02:00:08;2.08;;;1.80;;
27925;SDS011;15267;47.838;12.128;2022-08-19T02:02:34;1.73;;;1.63;;
27925;SDS011;15267;47.838;12.128;2022-08-19T02:05:00;1.63;;;1.52;;
27925;SDS011;15267;47.838;12.128;2022-08-19T02:07:26;1.60;;;1.48;;
27925;SDS011;15267;47.838;12.128;2022-08-19T02:09:54;1.58;;;1.48;;
27925;SDS011;15267;47.838;12.128;2022-08-19T02:12:20;3.90;;;1.30;;
27925;SDS011;15267;47.838;12.128;2022-08-19T02:14:46;1.38;;;1.27;;
27925;SDS011;15267;47.838;12.128;2022-08-19T02:17:13;1.30;;;1.20;;
27925;SDS011;15267;47.838;12.128;2022-08-19T02:19:39;1.40;;;1.30;;
27925;SDS011;15267;47.838;12.128;2022-08-19T02:22:05;2.55;;;1.40;;
27925;SDS011;15267;47.838;12.128;2022-08-19T02:24:31;1.33;;;1.23;;
27925;SDS011;15267;47.838;12.128;2022-08-19T02:26:57;1.50;;;1.40;;
27925;SDS011;15267;47.838;12.128;2022-08-19T02:29:23;1.63;;;1.33;;
27925;SDS011;15267;47.838;12.128;2022-08-19T02:31:50;1.40;;;1.30;;
27925;SDS011;15267;47.838;12.128;2022-08-19T02:34:16;1.77;;;1.40;;
27925;SDS011;15267;47.838;12.128;2022-08-19T02:36:42;1.30;;;1.20;;
27925;SDS011;15267;47.838;12.128;2022-08-19T02:39:09;1.83;;;1.08;;
27925;SDS011;15267;47.838;12.128;2022-08-19T02:41:36;1.40;;;1.30;;
27925;SDS011;15267;47.838;12.128;2022-08-19T02:44:02;1.60;;;1.35;;
27925;SDS011;15267;47.838;12.128;2022-08-19T02:46:30;1.50;;;1.40;;
27925;SDS011;15267;47.838;12.128;2022-08-19T02:48:58;1.83;;;1.33;;
27925;SDS011;15267;47.838;12.128;2022-08-19T02:51:46;1.40;;;1.30;;
27925;SDS011;15267;47.838;12.128;2022-08-19T02:54:11;1.20;;;1.10;;
27925;SDS011;15267;47.838;12.128;2022-08-19T02:56:39;2.63;;;1.30;;
27925;SDS011;15267;47.838;12.128;2022-08-19T02:59:05;2.88;;;1.23;;
27925;SDS011;15267;47.838;12.128;2022-08-19T03:01:36;1.77;;;1.40;;
27925;SDS011;15267;47.838;12.128;2022-08-19T03:04:03;1.50;;;1.33;;
27925;SDS011;15267;47.838;12.128;2022-08-19T03:06:29;1.40;;;1.30;;
27925;SDS011;15267;47.838;12.128;2022-08-19T03:08:56;1.48;;;1.38;;
27925;SDS011;15267;47.838;12.128;2022-08-19T03:11:23;1.48;;;1.30;;
27925;SDS011;15267;47.838;12.128;2022-08-19T03:13:50;1.40;;;1.30;;
27925;SDS011;15267;47.838;12.128;2022-08-19T03:16:16;1.65;;;1.30;;
27925;SDS011;15267;47.838;12.128;2022-08-19T03:18:42;1.60;;;1.38;;
27925;SDS011;15267;47.838;12.128;2022-08-19T03:21:09;1.45;;;1.20;;
27925;SDS011;15267;47.838;12.128;2022-08-19T03:23:35;1.70;;;1.30;;
27925;SDS011;15267;47.838;12.128;2022-08-19T03:26:04;1.25;;;1.15;;
27925;SDS011;15267;47.838;12.128;2022-08-19T03:28:31;1.20;;;1.10;;
27925;SDS011;15267;47.838;12.128;2022-08-19T03:30:58;1.38;;;1.27;;
27925;SDS011;15267;47.838;12.128;2022-08-19T03:33:25;1.30;;;1.20;;
27925;SDS011;15267;47.838;12.128;2022-08-19T03:36:13;1.50;;;1.40;;
27925;SDS011;15267;47.838;12.128;2022-08-19T03:38:38;1.63;;;1.30;;
27925;SDS011;15267;47.838;12.128;2022-08-19T03:41:05;1.20;;;1.10;;
27925;SDS011;15267;47.838;12.128;2022-08-19T03:43:33;1.00;;;1.00;;
27925;SDS011;15267;47.838;12.128;2022-08-19T03:46:00;1.30;;;1.20;;
27925;SDS011;15267;47.838;12.128;2022-08-19T03:48:27;1.02;;;0.93;;
27925;SDS011;15267;47.838;12.128;2022-08-19T03:50:54;1.20;;;1.10;;
27925;SDS011;15267;47.838;12.128;2022-08-19T03:53:21;1.30;;;1.20;;
27925;SDS011;15267;47.838;12.128;2022-08-19T03:55:47;1.55;;;1.20;;
27925;SDS011;15267;47.838;12.128;2022-08-19T03:58:13;1.20;;;1.10;;
27925;SDS011;15267;47.838;12.128;2022-08-19T04:00:41;1.58;;;0.98;;
27925;SDS011;15267;47.838;12.128;2022-08-19T04:03:07;1.25;;;1.15;;
27925;SDS011;15267;47.838;12.128;2022-08-19T04:05:33;1.30;;;1.10;;
27925;SDS011;15267;47.838;12.128;2022-08-19T04:07:59;1.10;;;1.00;;
27925;SDS011;15267;47.838;12.128;2022-08-19T04:10:25;2.65;;;1.40;;
27925;SDS011;15267;47.838;12.128;2022-08-19T04:12:52;1.75;;;1.20;;
27925;SDS011;15267;47.838;12.128;2022-08-19T04:15:18;1.13;;;1.10;;
27925;SDS011;15267;47.838;12.128;2022-08-19T04:17:45;1.30;;;1.20;;
27925;SDS011;15267;47.838;12.128;2022-08-19T04:20:11;1.40;;;1.20;;
27925;SDS011;15267;47.838;12.128;2022-08-19T04:22:37;1.10;;;1.00;;
27925;SDS011;15267;47.838;12.128;2022-08-19T04:25:03;1.23;;;1.13;;
27925;SDS011;15267;47.838;12.128;2022-08-19T04:27:29;1.35;;;1.25;;
27925;SDS011;15267;47.838;12.128;2022-08-19T04:29:56;1.75;;;1.20;;
27925;SDS011;15267;47.838;12.128;2022-08-19T04:32:22;1.38;;;1.10;;
27925;SDS011;15267;47.838;12.128;2022-08-19T04:34:48;1.40;;;1.20;;
27925;SDS011;15267;47.838;12.128;2022-08-19T04:37:14;2.10;;;1.20;;
27925;SDS011;15267;47.838;12.128;2022-08-19T04:39:40;1.55;;;1.40;;
27925;SDS011;15267;47.838;12.128;2022-08-19T04:42:25;3.40;;;1.23;;
27925;SDS011;15267;47.838;12.128;2022-08-19T04:45:07;1.42;;;1.33;;
27925;SDS011;15267;47.838;12.128;2022-08-19T04:47:35;2.13;;;1.33;;
27925;SDS011;15267;47.838;12.128;2022-08-19T04:50:02;1.42;;;1.30;;
27925;SDS011;15267;47.838;12.128;2022-08-19T04:52:28;1.30;;;1.20;;
27925;SDS011;15267;47.838;12.128;2022-08-19T04:54:56;1.67;;;1.30;;
27925;SDS011;15267;47.838;12.128;2022-08-19T04:57:22;1.35;;;1.25;;
27925;SDS011;15267;47.838;12.128;2022-08-19T04:59:48;1.67;;;1.30;;
27925;SDS011;15267;47.838;12.128;2022-08-19T05:02:14;2.95;;;1.50;;
27925;SDS011;15267;47.838;12.128;2022-08-19T05:04:40;1.30;;;1.20;;
27925;SDS011;15267;47.838;12.128;2022-08-19T05:07:07;2.58;;;1.35;;
27925;SDS011;15267;47.838;12.128;2022-08-19T05:09:34;2.25;;;1.30;;
27925;SDS011;15267;47.838;12.128;2022-08-19T05:12:00;1.40;;;1.30;;
27925;SDS011;15267;47.838;12.128;2022-08-19T05:14:26;3.08;;;1.40;;
27925;SDS011;15267;47.838;12.128;2022-08-19T05:16:53;2.00;;;1.40;;
27925;SDS011;15267;47.838;12.128;2022-08-19T05:19:19;2.20;;;1.50;;
27925;SDS011;15267;47.838;12.128;2022-08-19T05:22:04;1.67;;;1.58;;
27925;SDS011;15267;47.838;12.128;2022-08-19T05:24:48;1.63;;;1.52;;
27925;SDS011;15267;47.838;12.128;2022-08-19T05:27:16;2.40;;;1.50;;
27925;SDS011;15267;47.838;12.128;2022-08-19T05:29:42;1.90;;;1.50;;
27925;SDS011;15267;47.838;12.128;2022-08-19T05:32:08;1.85;;;1.70;;
27925;SDS011;15267;47.838;12.128;2022-08-19T05:34:35;5.88;;;2.13;;
27925;SDS011;15267;47.838;12.128;2022-08-19T05:37:03;2.08;;;1.80;;
27925;SDS011;15267;47.838;12.128;2022-08-19T05:39:36;3.45;;;2.10;;
27925;SDS011;15267;47.838;12.128;2022-08-19T05:42:03;2.80;;;1.90;;
27925;SDS011;15267;47.838;12.128;2022-08-19T05:44:32;3.85;;;2.00;;
27925;SDS011;15267;47.838;12.128;2022-08-19T05:46:58;4.55;;;1.90;;
27925;SDS011;15267;47.838;12.128;2022-08-19T05:49:25;2.58;;;1.90;;
27925;SDS011;15267;47.838;12.128;2022-08-19T05:51:52;4.55;;;1.90;;
27925;SDS011;15267;47.838;12.128;2022-08-19T05:54:19;3.88;;;2.20;;
27925;SDS011;15267;47.838;12.128;2022-08-19T05:56:46;4.13;;;2.53;;
27925;SDS011;15267;47.838;12.128;2022-08-19T05:59:13;5.30;;;3.40;;
27925;SDS011;15267;47.838;12.128;2022-08-19T06:01:40;2.63;;;2.42;;
27925;SDS011;15267;47.838;12.128;2022-08-19T06:04:07;3.60;;;2.47;;
27925;SDS011;15267;47.838;12.128;2022-08-19T06:06:34;3.95;;;3.60;;
27925;SDS011;15267;47.838;12.128;2022-08-19T06:09:01;4.45;;;3.88;;
27925;SDS011;15267;47.838;12.128;2022-08-19T06:11:38;4.03;;;3.05;;
27925;SDS011;15267;47.838;12.128;2022-08-19T06:14:07;5.47;;;3.00;;
27925;SDS011;15267;47.838;12.128;2022-08-19T06:16:34;6.78;;;3.25;;
27925;SDS011;15267;47.838;12.128;2022-08-19T06:19:01;5.05;;;4.60;;
27925;SDS011;15267;47.838;12.128;2022-08-19T06:21:28;5.97;;;4.63;;
27925;SDS011;15267;47.838;12.128;2022-08-19T06:23:54;5.30;;;4.80;;
27925;SDS011;15267;47.838;12.128;2022-08-19T06:26:21;6.18;;;5.57;;
27925;SDS011;15267;47.838;12.128;2022-08-19T06:28:48;5.00;;;4.50;;
27925;SDS011;15267;47.838;12.128;2022-08-19T06:31:18;4.40;;;3.83;;
27925;SDS011;15267;47.838;12.128;2022-08-19T06:33:45;4.55;;;4.15;;
27925;SDS011;15267;47.838;12.128;2022-08-19T06:36:16;4.65;;;3.58;;
27925;SDS011;15267;47.838;12.128;2022-08-19T06:38:42;6.97;;;3.83;;
27925;SDS011;15267;47.838;12.128;2022-08-19T06:41:08;4.63;;;4.20;;
27925;SDS011;15267;47.838;12.128;2022-08-19T06:43:35;5.22;;;4.25;;
27925;SDS011;15267;47.838;12.128;2022-08-19T06:46:01;5.60;;;4.60;;
27925;SDS011;15267;47.838;12.128;2022-08-19T06:48:28;6.35;;;5.57;;
27925;SDS011;15267;47.838;12.128;2022-08-19T06:50:54;4.32;;;3.90;;
27925;SDS011;15267;47.838;12.128;2022-08-19T06:53:21;4.10;;;3.30;;
27925;SDS011;15267;47.838;12.128;2022-08-19T06:55:47;6.00;;;4.30;;
27925;SDS011;15267;47.838;12.128;2022-08-19T06:58:13;5.60;;;4.85;;
27925;SDS011;15267;47.838;12.128;2022-08-19T07:00:39;10.63;;;3.88;;
27925;SDS011;15267;47.838;12.128;2022-08-19T07:03:05;4.95;;;3.80;;
27925;SDS011;15267;47.838;12.128;2022-08-19T07:05:31;5.32;;;3.80;;
27925;SDS011;15267;47.838;12.128;2022-08-19T07:07:57;5.50;;;3.50;;
27925;SDS011;15267;47.838;12.128;2022-08-19T07:10:23;5.22;;;4.13;;
27925;SDS011;15267;47.838;12.128;2022-08-19T07:12:50;4.88;;;4.15;;
27925;SDS011;15267;47.838;12.128;2022-08-19T07:15:16;5.75;;;3.40;;
27925;SDS011;15267;47.838;12.128;2022-08-19T07:17:42;4.82;;;3.47;;
27925;SDS011;15267;47.838;12.128;2022-08-19T07:20:09;5.22;;;3.67;;
27925;SDS011;15267;47.838;12.128;2022-08-19T07:22:36;3.70;;;3.20;;
27925;SDS011;15267;47.838;12.128;2022-08-19T07:25:03;4.22;;;3.70;;
27925;SDS011;15267;47.838;12.128;2022-08-19T07:27:29;4.82;;;3.90;;
27925;SDS011;15267;47.838;12.128;2022-08-19T07:29:56;7.25;;;5.07;;
27925;SDS011;15267;47.838;12.128;2022-08-19T07:32:22;6.18;;;4.10;;
27925;SDS011;15267;47.838;12.128;2022-08-19T07:34:48;11.10;;;3.28;;
27925;SDS011;15267;47.838;12.128;2022-08-19T07:37:14;4.93;;;4.50;;
27925;SDS011;15267;47.838;12.128;2022-08-19T07:39:40;4.55;;;4.15;;
27925;SDS011;15267;47.838;12.128;2022-08-19T07:42:08;5.90;;;3.70;;
27925;SDS011;15267;47.838;12.128;2022-08-19T07:44:35;5.30;;;4.25;;
27925;SDS011;15267;47.838;12.128;2022-08-19T07:47:01;6.53;;;4.65;;
27925;SDS011;15267;47.838;12.128;2022-08-19T07:49:27;4.85;;;4.38;;
27925;SDS011;15267;47.838;12.128;2022-08-19T07:51:55;4.10;;;3.70;;
27925;SDS011;15267;47.838;12.128;2022-08-19T07:54:21;3.90;;;3.50;;
27925;SDS011;15267;47.838;12.128;2022-08-19T07:56:48;5.22;;;3.95;;
27925;SDS011;15267;47.838;12.128;2022-08-19T07:59:15;6.07;;;4.20;;
27925;SDS011;15267;47.838;12.128;2022-08-19T08:01:42;5.47;;;4.95;;
27925;SDS011;15267;47.838;12.128;2022-08-19T08:04:09;7.20;;;4.95;;
27925;SDS011;15267;47.838;12.128;2022-08-19T08:06:54;5.60;;;5.10;;
27925;SDS011;15267;47.838;12.128;2022-08-19T08:09:40;5.78;;;4.68;;
27925;SDS011;15267;47.838;12.128;2022-08-19T08:14:38;5.30;;;4.80;;
27925;SDS011;15267;47.838;12.128;2022-08-19T08:17:04;4.03;;;3.72;;
27925;SDS011;15267;47.838;12.128;2022-08-19T08:19:31;5.40;;;4.90;;
27925;SDS011;15267;47.838;12.128;2022-08-19T08:21:59;5.05;;;4.55;;
27925;SDS011;15267;47.838;12.128;2022-08-19T08:24:26;4.53;;;3.92;;
27925;SDS011;15267;47.838;12.128;2022-08-19T08:26:52;6.47;;;4.40;;
27925;SDS011;15267;47.838;12.128;2022-08-19T08:29:18;6.57;;;4.88;;
27925;SDS011;15267;47.838;12.128;2022-08-19T08:31:44;5.22;;;4.72;;
27925;SDS011;15267;47.838;12.128;2022-08-19T08:34:11;4.60;;;4.20;;
27925;SDS011;15267;47.838;12.128;2022-08-19T08:36:39;5.93;;;3.88;;
27925;SDS011;15267;47.838;12.128;2022-08-19T08:39:10;5.15;;;4.50;;
27925;SDS011;15267;47.838;12.128;2022-08-19T08:41:49;5.07;;;4.45;;
27925;SDS011;15267;47.838;12.128;2022-08-19T08:44:18;4.68;;;4.25;;
27925;SDS011;15267;47.838;12.128;2022-08-19T08:46:47;7.25;;;4.50;;
27925;SDS011;15267;47.838;12.128;2022-08-19T08:51:44;5.57;;;4.97;;
27925;SDS011;15267;47.838;12.128;2022-08-19T08:54:13;5.13;;;4.72;;
27925;SDS011;15267;47.838;12.128;2022-08-19T08:56:40;6.10;;;4.60;;
27925;SDS011;15267;47.838;12.128;2022-08-19T08:59:10;6.47;;;4.95;;
27925;SDS011;15267;47.838;12.128;2022-08-19T09:01:38;5.55;;;5.03;;
27925;SDS011;15267;47.838;12.128;2022-08-19T09:04:04;10.55;;;4.28;;
27925;SDS011;15267;47.838;12.128;2022-08-19T09:09:04;6.22;;;5.68;;
27925;SDS011;15267;47.838;12.128;2022-08-19T09:14:13;6.07;;;5.30;;
27925;SDS011;15267;47.838;12.128;2022-08-19T09:16:40;5.70;;;5.15;;
27925;SDS011;15267;47.838;12.128;2022-08-19T09:19:07;5.88;;;4.63;;
27925;SDS011;15267;47.838;12.128;2022-08-19T09:21:33;6.22;;;5.63;;
27925;SDS011;15267;47.838;12.128;2022-08-19T09:24:00;4.20;;;3.83;;
27925;SDS011;15267;47.838;12.128;2022-08-19T09:26:26;5.72;;;4.40;;
27925;SDS011;15267;47.838;12.128;2022-08-19T09:28:52;5.68;;;3.80;;
27925;SDS011;15267;47.838;12.128;2022-08-19T09:31:24;5.32;;;3.97;;
27925;SDS011;15267;47.838;12.128;2022-08-19T09:33:51;5.43;;;4.93;;
27925;SDS011;15267;47.838;12.128;2022-08-19T09:36:18;5.20;;;4.00;;
27925;SDS011;15267;47.838;12.128;2022-08-19T09:38:45;7.45;;;5.25;;
27925;SDS011;15267;47.838;12.128;2022-08-19T09:41:13;5.93;;;5.13;;
27925;SDS011;15267;47.838;12.128;2022-08-19T09:43:40;5.65;;;4.60;;
27925;SDS011;15267;47.838;12.128;2022-08-19T09:46:07;5.60;;;4.70;;
27925;SDS011;15267;47.838;12.128;2022-08-19T09:48:37;4.93;;;4.45;;
27925;SDS011;15267;47.838;12.128;2022-08-19T09:53:30;4.90;;;4.50;;
27925;SDS011;15267;47.838;12.128;2022-08-19T09:55:56;4.95;;;4.55;;
27925;SDS011;15267;47.838;12.128;2022-08-19T09:58:22;4.38;;;3.97;;
27925;SDS011;15267;47.838;12.128;2022-08-19T10:00:52;4.18;;;3.78;;
27925;SDS011;15267;47.838;12.128;2022-08-19T10:03:18;3.85;;;3.55;;
27925;SDS011;15267;47.838;12.128;2022-08-19T10:05:44;5.43;;;4.40;;
27925;SDS011;15267;47.838;12.128;2022-08-19T10:08:13;3.78;;;3.47;;
27925;SDS011;15267;47.838;12.128;2022-08-19T10:10:43;4.38;;;3.97;;
27925;SDS011;15267;47.838;12.128;2022-08-19T10:13:09;5.13;;;3.78;;
27925;SDS011;15267;47.838;12.128;2022-08-19T10:15:35;4.00;;;3.60;;
27925;SDS011;15267;47.838;12.128;2022-08-19T10:18:04;5.00;;;4.50;;
27925;SDS011;15267;47.838;12.128;2022-08-19T10:20:30;4.00;;;3.60;;
27925;SDS011;15267;47.838;12.128;2022-08-19T10:22:56;5.13;;;3.80;;
27925;SDS011;15267;47.838;12.128;2022-08-19T10:25:24;4.70;;;4.30;;
27925;SDS011;15267;47.838;12.128;2022-08-19T10:27:51;4.35;;;3.95;;
27925;SDS011;15267;47.838;12.128;2022-08-19T10:30:17;4.38;;;4.00;;
27925;SDS011;15267;47.838;12.128;2022-08-19T10:32:43;4.57;;;4.18;;
27925;SDS011;15267;47.838;12.128;2022-08-19T10:35:10;6.15;;;4.28;;
27925;SDS011;15267;47.838;12.128;2022-08-19T10:37:37;4.75;;;4.35;;
27925;SDS011;15267;47.838;12.128;2022-08-19T10:40:07;4.30;;;3.90;;
27925;SDS011;15267;47.838;12.128;2022-08-19T10:42:35;4.10;;;3.70;;
27925;SDS011;15267;47.838;12.128;2022-08-19T10:45:02;4.90;;;4.50;;
27925;SDS011;15267;47.838;12.128;2022-08-19T10:47:28;4.53;;;4.05;;
27925;SDS011;15267;47.838;12.128;2022-08-19T10:49:54;5.32;;;4.72;;
27925;SDS011;15267;47.838;12.128;2022-08-19T10:52:40;5.80;;;5.30;;
27925;SDS011;15267;47.838;12.128;2022-08-19T10:55:07;5.47;;;4.97;;
27925;SDS011;15267;47.838;12.128;2022-08-19T10:57:52;4.88;;;4.43;;
27925;SDS011;15267;47.838;12.128;2022-08-19T11:00:18;4.40;;;4.00;;
27925;SDS011;15267;47.838;12.128;2022-08-19T11:02:45;4.68;;;4.28;;
27925;SDS011;15267;47.838;12.128;2022-08-19T11:05:11;4.90;;;4.43;;
27925;SDS011;15267;47.838;12.128;2022-08-19T11:07:38;4.75;;;4.35;;
27925;SDS011;15267;47.838;12.128;2022-08-19T11:10:05;5.18;;;4.68;;
27925;SDS011;15267;47.838;12.128;2022-08-19T11:12:31;6.15;;;5.53;;
27925;SDS011;15267;47.838;12.128;2022-08-19T11:14:58;5.47;;;4.97;;
27925;SDS011;15267;47.838;12.128;2022-08-19T11:17:24;5.65;;;4.88;;
27925;SDS011;15267;47.838;12.128;2022-08-19T11:19:50;5.82;;;5.22;;
27925;SDS011;15267;47.838;12.128;2022-08-19T11:22:16;6.18;;;5.57;;
27925;SDS011;15267;47.838;12.128;2022-08-19T11:24:42;6.28;;;5.43;;
27925;SDS011;15267;47.838;12.128;2022-08-19T11:27:09;6.63;;;5.78;;
27925;SDS011;15267;47.838;12.128;2022-08-19T11:29:37;6.88;;;5.70;;
27925;SDS011;15267;47.838;12.128;2022-08-19T11:32:08;7.55;;;5.90;;
27925;SDS011;15267;47.838;12.128;2022-08-19T11:34:34;7.43;;;4.90;;
27925;SDS011;15267;47.838;12.128;2022-08-19T11:37:01;5.68;;;4.40;;
27925;SDS011;15267;47.838;12.128;2022-08-19T11:39:29;4.40;;;4.00;;
27925;SDS011;15267;47.838;12.128;2022-08-19T11:41:55;4.53;;;4.13;;
27925;SDS011;15267;47.838;12.128;2022-08-19T11:44:21;4.72;;;4.32;;
27925;SDS011;15267;47.838;12.128;2022-08-19T11:46:47;4.65;;;4.20;;
27925;SDS011;15267;47.838;12.128;2022-08-19T11:49:14;4.90;;;4.50;;
27925;SDS011;15267;47.838;12.128;2022-08-19T11:51:41;5.00;;;4.50;;
27925;SDS011;15267;47.838;12.128;2022-08-19T11:54:11;4.53;;;3.70;;
27925;SDS011;15267;47.838;12.128;2022-08-19T11:56:37;4.63;;;3.58;;
27925;SDS011;15267;47.838;12.128;2022-08-19T11:59:04;4.70;;;3.70;;
27925;SDS011;15267;47.838;12.128;2022-08-19T12:01:30;3.20;;;2.90;;
27925;SDS011;15267;47.838;12.128;2022-08-19T12:03:56;4.70;;;3.05;;
27925;SDS011;15267;47.838;12.128;2022-08-19T12:06:23;3.53;;;2.67;;
27925;SDS011;15267;47.838;12.128;2022-08-19T12:08:53;4.68;;;2.40;;
27925;SDS011;15267;47.838;12.128;2022-08-19T12:11:20;4.85;;;2.47;;
27925;SDS011;15267;47.838;12.128;2022-08-19T12:13:46;2.45;;;2.25;;
27925;SDS011;15267;47.838;12.128;2022-08-19T12:16:17;2.78;;;2.30;;
27925;SDS011;15267;47.838;12.128;2022-08-19T12:18:43;3.58;;;2.50;;
27925;SDS011;15267;47.838;12.128;2022-08-19T12:21:13;2.85;;;2.60;;
27925;SDS011;15267;47.838;12.128;2022-08-19T12:23:40;3.00;;;2.70;;
27925;SDS011;15267;47.838;12.128;2022-08-19T12:26:06;2.80;;;2.60;;
27925;SDS011;15267;47.838;12.128;2022-08-19T12:28:34;3.33;;;2.70;;
27925;SDS011;15267;47.838;12.128;2022-08-19T12:31:00;2.78;;;2.58;;
27925;SDS011;15267;47.838;12.128;2022-08-19T12:33:26;2.88;;;2.67;;
27925;SDS011;15267;47.838;12.128;2022-08-19T12:35:53;2.72;;;2.53;;
27925;SDS011;15267;47.838;12.128;2022-08-19T12:38:19;2.92;;;2.55;;
27925;SDS011;15267;47.838;12.128;2022-08-19T12:40:46;2.95;;;2.65;;
27925;SDS011;15267;47.838;12.128;2022-08-19T12:43:12;4.65;;;2.72;;
27925;SDS011;15267;47.838;12.128;2022-08-19T12:45:40;3.00;;;2.70;;
27925;SDS011;15267;47.838;12.128;2022-08-19T12:48:07;2.85;;;2.50;;
27925;SDS011;15267;47.838;12.128;2022-08-19T12:50:33;4.05;;;2.70;;
27925;SDS011;15267;47.838;12.128;2022-08-19T12:52:59;2.63;;;2.42;;
27925;SDS011;15267;47.838;12.128;2022-08-19T12:55:25;2.72;;;2.53;;
27925;SDS011;15267;47.838;12.128;2022-08-19T12:57:53;2.60;;;2.40;;
27925;SDS011;15267;47.838;12.128;2022-08-19T13:00:20;2.45;;;2.25;;
27925;SDS011;15267;47.838;12.128;2022-08-19T13:02:47;4.40;;;2.40;;
27925;SDS011;15267;47.838;12.128;2022-08-19T13:05:15;3.17;;;2.60;;
27925;SDS011;15267;47.838;12.128;2022-08-19T13:07:41;3.67;;;2.40;;
27925;SDS011;15267;47.838;12.128;2022-08-19T13:10:12;2.40;;;2.10;;
27925;SDS011;15267;47.838;12.128;2022-08-19T13:12:39;2.38;;;2.10;;
27925;SDS011;15267;47.838;12.128;2022-08-19T13:15:06;2.40;;;2.20;;
27925;SDS011;15267;47.838;12.128;2022-08-19T13:17:33;2.28;;;2.08;;
27925;SDS011;15267;47.838;12.128;2022-08-19T13:19:59;2.22;;;2.00;;
27925;SDS011;15267;47.838;12.128;2022-08-19T13:22:25;2.20;;;2.00;;
27925;SDS011;15267;47.838;12.128;2022-08-19T13:24:52;3.55;;;2.22;;
27925;SDS011;15267;47.838;12.128;2022-08-19T13:27:18;2.72;;;2.05;;
27925;SDS011;15267;47.838;12.128;2022-08-19T13:29:44;3.17;;;1.90;;
27925;SDS011;15267;47.838;12.128;2022-08-19T13:32:29;2.70;;;2.03;;
27925;SDS011;15267;47.838;12.128;2022-08-19T13:35:14;1.60;;;1.50;;
27925;SDS011;15267;47.838;12.128;2022-08-19T13:37:40;2.35;;;2.15;;
27925;SDS011;15267;47.838;12.128;2022-08-19T13:40:07;7.90;;;3.38;;
27925;SDS011;15267;47.838;12.128;2022-08-19T13:42:36;3.22;;;2.92;;
27925;SDS011;15267;47.838;12.128;2022-08-19T13:45:02;2.55;;;2.35;;
27925;SDS011;15267;47.838;12.128;2022-08-19T13:47:31;2.95;;;2.58;;
27925;SDS011;15267;47.838;12.128;2022-08-19T13:49:59;2.80;;;2.60;;
27925;SDS011;15267;47.838;12.128;2022-08-19T13:52:25;2.20;;;2.10;;
27925;SDS011;15267;47.838;12.128;2022-08-19T13:54:51;1.90;;;1.80;;
27925;SDS011;15267;47.838;12.128;2022-08-19T13:57:17;2.22;;;2.10;;
27925;SDS011;15267;47.838;12.128;2022-08-19T13:59:43;3.38;;;2.20;;
27925;SDS011;15267;47.838;12.128;2022-08-19T14:02:09;6.53;;;2.30;;
27925;SDS011;15267;47.838;12.128;2022-08-19T14:04:35;3.90;;;2.22;;
27925;SDS011;15267;47.838;12.128;2022-08-19T14:07:02;3.63;;;2.22;;
27925;SDS011;15267;47.838;12.128;2022-08-19T14:09:28;2.38;;;2.05;;
27925;SDS011;15267;47.838;12.128;2022-08-19T14:11:54;6.28;;;2.65;;
27925;SDS011;15267;47.838;12.128;2022-08-19T14:14:20;3.25;;;2.20;;
27925;SDS011;15267;47.838;12.128;2022-08-19T14:16:47;3.13;;;2.33;;
27925;SDS011;15267;47.838;12.128;2022-08-19T14:19:13;3.75;;;2.50;;
27925;SDS011;15267;47.838;12.128;2022-08-19T14:21:39;4.07;;;2.70;;
27925;SDS011;15267;47.838;12.128;2022-08-19T14:24:06;4.05;;;2.35;;
27925;SDS011;15267;47.838;12.128;2022-08-19T14:26:32;3.58;;;2.33;;
27925;SDS011;15267;47.838;12.128;2022-08-19T14:28:58;4.93;;;2.13;;
27925;SDS011;15267;47.838;12.128;2022-08-19T14:31:24;3.30;;;2.28;;
27925;SDS011;15267;47.838;12.128;2022-08-19T14:33:51;3.15;;;2.40;;
27925;SDS011;15267;47.838;12.128;2022-08-19T14:36:18;2.75;;;2.50;;
27925;SDS011;15267;47.838;12.128;2022-08-19T14:38:45;2.90;;;2.50;;
27925;SDS011;15267;47.838;12.128;2022-08-19T14:43:37;3.90;;;3.22;;
27925;SDS011;15267;47.838;12.128;2022-08-19T14:46:03;3.40;;;3.10;;
27925;SDS011;15267;47.838;12.128;2022-08-19T14:48:29;4.05;;;2.53;;
27925;SDS011;15267;47.838;12.128;2022-08-19T14:50:56;2.95;;;2.30;;